Time;durP1;ratioP1;P1;durP2;ratioP2;P2;SDS_P1;SDS_P2;PMS_P1;PMS_P2;Temp;Humidity;BMP_temperature;BMP_pressure;BME280_temperature;BME280_humidity;BME280_pressure;Samples;Min_cycle;Max_cycle;Signal;HPM_P1;HPM_P2
2023/09/06 00:00:43;;;;;;;1.10;0.80;;;18.60;1.00;;;;;;5125327;27;20440;-58
2023/09/06 00:03:11;;;;;;;1.10;0.80;;;18.60;1.00;;;;;;5113759;28;20419;-58
2023/09/06 00:05:41;;;;;;;1.90;0.90;;;18.60;1.00;;;;;;5112418;27;20420;-58
2023/09/06 00:08:09;;;;;;;1.20;0.90;;;18.50;37.70;;;;;;5117400;28;20460;-58
2023/09/06 00:10:38;;;;;;;2.20;0.80;;;18.50;99.90;;;;;;5122847;27;20432;-59
2023/09/06 00:13:07;;;;;;;1.60;0.90;;;18.40;99.90;;;;;;5117725;27;20462;-58
2023/09/06 00:15:34;;;;;;;1.40;0.90;;;18.40;56.80;;;;;;5117235;27;20870;-58
2023/09/06 00:18:06;;;;;;;2.75;1.00;;;18.30;1.00;;;;;;5117184;28;20714;-58
2023/09/06 00:20:34;;;;;;;1.48;0.90;;;18.40;1.00;;;;;;5133863;27;20422;-58
2023/09/06 00:23:05;;;;;;;1.17;0.80;;;18.40;1.00;;;;;;5135026;27;20733;-58
2023/09/06 00:25:33;;;;;;;1.50;0.90;;;18.40;99.90;;;;;;5134557;27;20422;-57
2023/09/06 00:28:03;;;;;;;1.05;0.80;;;18.40;1.00;;;;;;5132142;27;20453;-60
2023/09/06 00:30:31;;;;;;;2.43;0.80;;;18.40;99.90;;;;;;5114038;28;20492;-58
2023/09/06 00:32:59;;;;;;;2.15;1.00;;;18.30;99.90;;;;;;5117248;27;20421;-60
2023/09/06 00:35:27;;;;;;;1.15;0.70;;;18.30;99.90;;;;;;5115487;28;20469;-60
2023/09/06 00:37:55;;;;;;;1.40;0.90;;;18.30;1.00;;;;;;5118866;27;20432;-58
2023/09/06 00:40:24;;;;;;;1.80;0.90;;;18.30;1.00;;;;;;5136699;27;20426;-58
2023/09/06 00:42:53;;;;;;;1.80;0.90;;;18.20;1.00;;;;;;5131076;27;20426;-59
2023/09/06 00:45:22;;;;;;;1.70;1.02;;;18.20;99.90;;;;;;5137314;27;20422;-59
2023/09/06 00:47:50;;;;;;;1.33;0.90;;;18.20;1.00;;;;;;5130546;27;20435;-58
2023/09/06 00:50:18;;;;;;;1.70;0.80;;;18.20;99.90;;;;;;5116807;28;20426;-58
2023/09/06 00:52:46;;;;;;;1.30;0.80;;;18.10;1.00;;;;;;5119671;27;20429;-59
2023/09/06 00:55:14;;;;;;;1.50;0.80;;;18.00;1.00;;;;;;5115044;28;20434;-58
2023/09/06 00:57:43;;;;;;;1.90;0.80;;;18.00;1.00;;;;;;5115004;28;20879;-58
2023/09/06 01:00:17;;;;;;;1.42;0.90;;;18.00;1.00;;;;;;5114989;28;20428;-59
2023/09/06 01:02:45;;;;;;;1.20;0.90;;;18.00;1.00;;;;;;5122926;27;20422;-58
2023/09/06 01:05:12;;;;;;;1.60;0.90;;;17.90;1.00;;;;;;5135819;27;20433;-58
2023/09/06 01:07:41;;;;;;;2.47;0.80;;;17.90;1.00;;;;;;5123551;27;20475;-58
2023/09/06 01:10:09;;;;;;;1.30;0.90;;;17.90;1.00;;;;;;5115170;28;20420;-59
2023/09/06 01:12:36;;;;;;;1.70;0.85;;;17.90;1.00;;;;;;5114416;28;20436;-58
2023/09/06 01:15:05;;;;;;;2.30;0.90;;;17.80;1.00;;;;;;5115631;28;20416;-58
2023/09/06 01:17:36;;;;;;;3.10;0.80;;;17.70;1.00;;;;;;5120272;27;20426;-58
2023/09/06 01:20:15;;;;;;;1.30;0.90;;;17.70;1.00;;;;;;5115672;28;20432;-58
2023/09/06 01:22:47;;;;;;;1.20;0.90;;;17.60;44.60;;;;;;5116375;28;20423;-59
2023/09/06 01:25:16;;;;;;;2.53;0.90;;;17.60;99.90;;;;;;5116054;28;21186;-60
2023/09/06 01:27:44;;;;;;;1.40;0.80;;;17.60;99.90;;;;;;5115174;28;20485;-58
2023/09/06 01:30:12;;;;;;;1.35;0.80;;;17.60;99.90;;;;;;5115996;28;20419;-59
2023/09/06 01:32:40;;;;;;;1.63;0.80;;;17.50;99.90;;;;;;5115811;28;20416;-59
2023/09/06 01:35:10;;;;;;;2.00;0.80;;;17.60;99.90;;;;;;5116064;28;20463;-59
2023/09/06 01:37:38;;;;;;;2.33;0.80;;;17.60;99.90;;;;;;5115023;28;20432;-59
2023/09/06 01:40:17;;;;;;;2.40;1.20;;;17.60;1.00;;;;;;5115688;28;20435;-58
2023/09/06 01:42:46;;;;;;;1.35;0.80;;;17.50;41.40;;;;;;5115178;28;20420;-58
2023/09/06 01:45:17;;;;;;;1.50;0.80;;;17.50;78.80;;;;;;5115274;28;20412;-58
2023/09/06 01:47:44;;;;;;;2.40;0.80;;;17.40;99.90;;;;;;5115825;28;20420;-60
2023/09/06 01:50:12;;;;;;;1.73;0.90;;;17.40;99.90;;;;;;5115731;28;20492;-59
2023/09/06 01:52:39;;;;;;;2.10;0.80;;;17.30;99.90;;;;;;5115405;28;20420;-59
2023/09/06 01:55:09;;;;;;;1.60;0.90;;;17.30;99.90;;;;;;5115772;28;20501;-57
2023/09/06 01:57:36;;;;;;;1.20;0.80;;;17.30;99.90;;;;;;5110044;28;20425;-59
2023/09/06 02:00:18;;;;;;;1.88;0.90;;;17.30;99.90;;;;;;5113767;28;20446;-58
2023/09/06 02:02:46;;;;;;;1.67;0.90;;;17.20;99.90;;;;;;5116036;28;20428;-58
2023/09/06 02:05:14;;;;;;;1.23;0.80;;;17.30;99.90;;;;;;5115901;28;20496;-59
2023/09/06 02:07:41;;;;;;;2.20;0.90;;;17.30;99.90;;;;;;5115441;28;20515;-58
2023/09/06 02:10:10;;;;;;;1.60;0.90;;;17.30;99.90;;;;;;5115566;28;20710;-59
2023/09/06 02:12:37;;;;;;;1.10;0.70;;;17.20;99.90;;;;;;5109192;28;20458;-58
2023/09/06 02:15:08;;;;;;;1.20;0.80;;;17.20;99.90;;;;;;5113618;28;20428;-59
2023/09/06 02:17:36;;;;;;;1.80;0.90;;;17.20;99.90;;;;;;5115270;28;20416;-58
2023/09/06 02:20:12;;;;;;;1.50;0.90;;;17.20;99.90;;;;;;5115445;28;20432;-57
2023/09/06 02:22:41;;;;;;;1.10;0.73;;;17.20;99.90;;;;;;5115507;28;20428;-59
2023/09/06 02:25:09;;;;;;;1.30;0.80;;;17.10;99.90;;;;;;5115230;28;20847;-57
2023/09/06 02:27:36;;;;;;;1.23;0.80;;;17.10;99.90;;;;;;5115328;28;20424;-59
2023/09/06 02:30:07;;;;;;;2.50;0.80;;;17.10;99.90;;;;;;5115162;28;20835;-60
2023/09/06 02:32:34;;;;;;;1.58;0.90;;;17.00;99.90;;;;;;5115351;28;20502;-59
2023/09/06 02:35:02;;;;;;;1.40;0.80;;;17.10;99.90;;;;;;5115533;28;20427;-58
2023/09/06 02:37:30;;;;;;;1.50;1.00;;;17.00;99.90;;;;;;5115079;28;20419;-58
2023/09/06 02:39:57;;;;;;;2.28;0.82;;;17.00;99.90;;;;;;5118060;28;20428;-60
2023/09/06 02:42:24;;;;;;;1.02;0.80;;;16.90;99.90;;;;;;5119006;28;20420;-59
2023/09/06 02:44:52;;;;;;;1.50;0.80;;;17.00;99.90;;;;;;5119507;28;20723;-58
2023/09/06 02:47:25;;;;;;;1.40;1.00;;;17.00;99.90;;;;;;5119096;28;20408;-59
2023/09/06 02:49:55;;;;;;;1.33;0.83;;;17.00;99.90;;;;;;5119425;28;20520;-58
2023/09/06 02:52:28;;;;;;;1.67;0.90;;;16.90;99.90;;;;;;5118898;28;20458;-58
2023/09/06 02:54:57;;;;;;;1.80;0.90;;;16.80;99.90;;;;;;5118998;28;20708;-59
2023/09/06 02:57:26;;;;;;;1.70;0.88;;;16.90;99.90;;;;;;5114762;28;20426;-60
2023/09/06 02:59:53;;;;;;;1.50;0.90;;;16.80;99.90;;;;;;5115470;28;20488;-59
2023/09/06 03:02:22;;;;;;;1.90;1.30;;;16.70;99.90;;;;;;5118211;28;20440;-59
2023/09/06 03:04:54;;;;;;;1.30;0.80;;;16.70;99.90;;;;;;5118234;28;20507;-58
2023/09/06 03:07:22;;;;;;;2.20;0.90;;;16.70;99.90;;;;;;5129503;27;20430;-58
2023/09/06 03:09:50;;;;;;;2.00;1.00;;;16.60;99.90;;;;;;5147539;27;20414;-59
2023/09/06 03:12:17;;;;;;;2.00;0.98;;;16.70;99.90;;;;;;5138589;27;20422;-58
2023/09/06 03:14:47;;;;;;;1.90;0.90;;;16.70;99.90;;;;;;5139230;27;20411;-59
2023/09/06 03:17:18;;;;;;;2.80;1.00;;;16.70;99.90;;;;;;5139068;27;20487;-60
2023/09/06 03:19:53;;;;;;;1.35;0.88;;;16.70;99.90;;;;;;5139024;27;20524;-59
2023/09/06 03:22:20;;;;;;;1.60;1.00;;;16.70;99.90;;;;;;5138872;27;20513;-59
2023/09/06 03:24:48;;;;;;;1.40;0.90;;;16.70;99.90;;;;;;5139145;27;20818;-61
2023/09/06 03:27:16;;;;;;;1.30;0.80;;;16.70;99.90;;;;;;5138776;27;20425;-59
2023/09/06 03:29:45;;;;;;;1.40;0.98;;;16.60;99.90;;;;;;5138850;27;20430;-58
2023/09/06 03:32:13;;;;;;;1.80;0.90;;;16.60;99.90;;;;;;5137977;27;20415;-58
2023/09/06 03:34:40;;;;;;;1.60;0.90;;;16.60;99.90;;;;;;5138882;27;20446;-59
2023/09/06 03:37:10;;;;;;;1.30;1.00;;;16.50;99.90;;;;;;5138985;27;20427;-58
2023/09/06 03:39:41;;;;;;;1.40;0.90;;;16.50;99.90;;;;;;5139065;27;20422;-59
2023/09/06 03:42:09;;;;;;;1.77;0.80;;;16.40;1.00;;;;;;5137758;27;20422;-59
2023/09/06 03:44:36;;;;;;;1.60;1.00;;;16.50;1.00;;;;;;5138620;27;20414;-59
2023/09/06 03:47:06;;;;;;;1.70;1.00;;;16.50;1.00;;;;;;5138688;27;20429;-60
2023/09/06 03:49:35;;;;;;;1.40;0.90;;;16.50;99.90;;;;;;5138287;27;20419;-59
2023/09/06 03:52:04;;;;;;;1.48;0.90;;;16.50;99.90;;;;;;5137918;27;20437;-58
2023/09/06 03:54:34;;;;;;;2.22;1.00;;;16.50;99.90;;;;;;5137947;27;20840;-59
2023/09/06 03:57:01;;;;;;;1.85;1.10;;;16.40;1.00;;;;;;5138475;27;20410;-57
2023/09/06 03:59:30;;;;;;;1.50;1.00;;;16.40;1.00;;;;;;5138203;27;20930;-59
2023/09/06 04:01:57;;;;;;;1.60;1.00;;;16.40;1.00;;;;;;5137052;27;20418;-58
2023/09/06 04:04:25;;;;;;;2.30;1.00;;;16.50;1.00;;;;;;5137651;27;20670;-58
2023/09/06 04:06:52;;;;;;;1.50;1.00;;;16.40;1.00;;;;;;5137168;27;20436;-58
2023/09/06 04:09:19;;;;;;;2.00;1.00;;;16.50;1.00;;;;;;5136664;27;20418;-59
2023/09/06 04:11:48;;;;;;;1.30;0.82;;;16.50;1.00;;;;;;5136695;27;20414;-60
2023/09/06 04:14:15;;;;;;;1.40;0.90;;;16.50;99.90;;;;;;5136337;27;20414;-57
2023/09/06 04:16:42;;;;;;;1.90;1.00;;;16.50;99.90;;;;;;5136398;27;20425;-59
2023/09/06 04:19:09;;;;;;;1.40;0.90;;;16.50;99.90;;;;;;5135856;27;20425;-58
2023/09/06 04:21:37;;;;;;;2.00;0.90;;;16.50;99.90;;;;;;5136240;27;20707;-58
2023/09/06 04:24:07;;;;;;;1.58;0.95;;;16.50;99.90;;;;;;5135825;27;20880;-59
2023/09/06 04:26:34;;;;;;;1.80;1.00;;;16.50;99.90;;;;;;5136218;27;20416;-59
2023/09/06 04:29:03;;;;;;;2.20;1.00;;;16.50;99.90;;;;;;5136512;27;20441;-58
2023/09/06 04:31:31;;;;;;;2.40;1.08;;;16.50;99.90;;;;;;5135262;27;20471;-58
2023/09/06 04:33:59;;;;;;;2.00;0.90;;;16.50;99.90;;;;;;5136689;27;20422;-58
2023/09/06 04:36:26;;;;;;;1.90;0.90;;;16.50;99.90;;;;;;5133926;27;20406;-57
2023/09/06 04:38:55;;;;;;;1.65;1.00;;;16.50;99.90;;;;;;5133764;27;20416;-58
2023/09/06 04:41:22;;;;;;;2.30;0.90;;;16.40;99.90;;;;;;5133130;27;20423;-59
2023/09/06 04:43:49;;;;;;;1.35;1.00;;;16.50;99.90;;;;;;5133708;27;20441;-58
2023/09/06 04:46:18;;;;;;;1.80;0.95;;;16.50;99.90;;;;;;5134279;27;20424;-57
2023/09/06 04:48:46;;;;;;;1.60;1.00;;;16.50;99.90;;;;;;5122019;27;20436;-58
2023/09/06 04:51:14;;;;;;;1.58;1.00;;;16.60;99.90;;;;;;5143526;27;20405;-58
2023/09/06 04:53:41;;;;;;;1.67;0.95;;;16.50;99.90;;;;;;5145876;27;20642;-57
2023/09/06 04:56:08;;;;;;;1.60;1.00;;;16.50;99.90;;;;;;5134357;27;20483;-58
2023/09/06 04:58:37;;;;;;;1.70;1.10;;;16.60;99.90;;;;;;5126825;27;20474;-57
2023/09/06 05:01:07;;;;;;;2.60;1.00;;;16.50;99.90;;;;;;5135130;27;20505;-58
2023/09/06 05:03:35;;;;;;;1.63;0.90;;;16.40;99.90;;;;;;5133859;27;20721;-57
2023/09/06 05:06:03;;;;;;;1.92;0.90;;;16.40;99.90;;;;;;5122198;27;20846;-58
2023/09/06 05:08:32;;;;;;;1.55;1.00;;;16.50;99.90;;;;;;5112312;28;20522;-57
2023/09/06 05:10:59;;;;;;;1.70;1.00;;;16.70;99.90;;;;;;5112435;28;20439;-62
2023/09/06 05:13:27;;;;;;;1.20;0.90;;;16.60;1.00;;;;;;5115643;27;20519;-61
2023/09/06 05:16:02;;;;;;;2.15;1.00;;;16.60;99.90;;;;;;5123123;27;20490;-61
2023/09/06 05:18:29;;;;;;;2.80;1.10;;;16.60;99.90;;;;;;5118772;27;20417;-60
2023/09/06 05:20:59;;;;;;;2.30;0.90;;;16.50;99.90;;;;;;5131451;27;20868;-61
2023/09/06 05:23:28;;;;;;;1.90;0.82;;;16.50;99.90;;;;;;5119296;27;20419;-62
2023/09/06 05:25:55;;;;;;;1.90;0.90;;;16.50;99.90;;;;;;5120319;27;20718;-61
2023/09/06 05:28:22;;;;;;;1.35;1.00;;;16.60;99.90;;;;;;5127359;27;20903;-62
2023/09/06 05:30:49;;;;;;;1.80;0.90;;;16.70;99.90;;;;;;5133392;27;20403;-62
2023/09/06 05:33:16;;;;;;;1.88;0.98;;;16.70;29.80;;;;;;5132092;27;21008;-61
2023/09/06 05:35:44;;;;;;;1.90;1.00;;;16.70;73.30;;;;;;5132817;27;20410;-61
2023/09/06 05:38:13;;;;;;;1.58;1.00;;;16.60;95.60;;;;;;5126462;27;20426;-62
2023/09/06 05:40:43;;;;;;;1.80;1.10;;;16.60;99.90;;;;;;5134075;27;20437;-61
2023/09/06 05:43:10;;;;;;;2.28;0.93;;;16.50;99.90;;;;;;5125900;27;20414;-61
2023/09/06 05:45:37;;;;;;;2.08;1.00;;;16.50;99.90;;;;;;5145495;27;20842;-61
2023/09/06 05:48:05;;;;;;;1.95;1.20;;;16.60;99.90;;;;;;5132302;27;20424;-61
2023/09/06 05:50:32;;;;;;;2.60;1.20;;;16.70;99.90;;;;;;5106885;28;20727;-61
2023/09/06 05:53:00;;;;;;;2.05;1.10;;;16.70;99.90;;;;;;5113944;28;20424;-61
2023/09/06 05:55:29;;;;;;;1.70;1.00;;;16.70;1.00;;;;;;5113162;28;20420;-61
2023/09/06 05:57:56;;;;;;;1.80;1.00;;;16.50;1.00;;;;;;5112659;28;20417;-60
2023/09/06 06:00:26;;;;;;;2.53;1.10;;;16.50;1.00;;;;;;5104827;28;20865;-61
2023/09/06 06:02:55;;;;;;;1.50;1.17;;;16.60;1.00;;;;;;5111069;28;20423;-61
2023/09/06 06:05:24;;;;;;;1.50;1.00;;;16.60;1.00;;;;;;5111955;28;20424;-61
2023/09/06 06:07:51;;;;;;;2.10;1.00;;;16.70;1.00;;;;;;5104008;28;20452;-61
2023/09/06 06:10:18;;;;;;;1.50;1.00;;;16.70;1.00;;;;;;5102468;28;20416;-61
2023/09/06 06:12:47;;;;;;;1.60;1.10;;;16.80;99.90;;;;;;5112584;28;20415;-61
2023/09/06 06:15:15;;;;;;;2.30;1.00;;;16.80;99.90;;;;;;5118938;28;20518;-61
2023/09/06 06:17:43;;;;;;;1.90;1.40;;;16.80;99.90;;;;;;5119646;28;20424;-60
2023/09/06 06:20:11;;;;;;;3.50;1.10;;;16.90;12.10;;;;;;5119202;28;20502;-59
2023/09/06 06:22:39;;;;;;;3.75;1.10;;;16.90;41.00;;;;;;5134445;27;20424;-59
2023/09/06 06:25:08;;;;;;;2.88;0.90;;;16.90;1.00;;;;;;5138336;27;20818;-58
2023/09/06 06:27:35;;;;;;;1.60;1.10;;;16.90;1.00;;;;;;5138265;27;20433;-61
2023/09/06 06:30:05;;;;;;;1.80;1.00;;;17.00;1.00;;;;;;5139566;27;20426;-60
2023/09/06 06:32:32;;;;;;;1.60;1.10;;;17.00;1.00;;;;;;5138850;27;20421;-60
2023/09/06 06:35:01;;;;;;;1.40;1.00;;;17.00;1.00;;;;;;5139487;27;20440;-61
2023/09/06 06:37:29;;;;;;;2.50;1.30;;;17.10;1.00;;;;;;5139309;27;20426;-62
2023/09/06 06:39:58;;;;;;;1.90;1.00;;;17.10;99.90;;;;;;5132398;27;20418;-62
2023/09/06 06:42:26;;;;;;;1.80;1.27;;;17.20;99.90;;;;;;5138510;27;20410;-62
2023/09/06 06:44:54;;;;;;;1.90;1.10;;;17.30;1.00;;;;;;5139662;27;20422;-61
2023/09/06 06:47:22;;;;;;;1.70;1.00;;;17.30;1.00;;;;;;5139228;27;20428;-62
2023/09/06 06:49:50;;;;;;;1.40;1.00;;;17.30;1.00;;;;;;5139031;27;20872;-62
2023/09/06 06:52:17;;;;;;;1.60;1.00;;;17.40;1.00;;;;;;5136426;27;20423;-62
2023/09/06 06:54:45;;;;;;;3.40;1.30;;;17.50;99.90;;;;;;5133571;27;20838;-62
2023/09/06 06:57:13;;;;;;;2.30;1.50;;;17.60;99.90;;;;;;5138566;27;20459;-60
2023/09/06 06:59:40;;;;;;;1.40;1.10;;;17.70;45.00;;;;;;5138157;27;20418;-61
2023/09/06 07:02:08;;;;;;;1.60;1.00;;;17.70;1.00;;;;;;5137947;27;20579;-61
2023/09/06 07:04:37;;;;;;;1.85;0.90;;;17.80;1.00;;;;;;5136546;27;20985;-61
2023/09/06 07:07:04;;;;;;;1.30;0.90;;;17.80;1.00;;;;;;5138585;27;20413;-61
2023/09/06 07:09:31;;;;;;;1.70;1.10;;;18.10;1.00;;;;;;5138617;27;20725;-61
2023/09/06 07:11:58;;;;;;;1.40;0.90;;;18.10;1.00;;;;;;5137397;27;20414;-61
2023/09/06 07:14:26;;;;;;;2.78;1.10;;;18.40;99.90;;;;;;5137560;27;20597;-61
2023/09/06 07:16:53;;;;;;;1.90;1.10;;;18.60;1.00;;;;;;5137562;27;20525;-61
2023/09/06 07:19:20;;;;;;;2.00;1.00;;;18.60;1.00;;;;;;5135997;27;20713;-61
2023/09/06 07:21:49;;;;;;;1.35;0.98;;;18.60;1.00;;;;;;5135838;27;20454;-61
2023/09/06 07:24:16;;;;;;;2.60;1.00;;;18.60;1.00;;;;;;5136487;27;20450;-61
2023/09/06 07:26:43;;;;;;;1.38;0.93;;;18.60;1.00;;;;;;5134230;27;20487;-61
2023/09/06 07:29:11;;;;;;;1.30;0.90;;;18.60;1.00;;;;;;5135292;27;20830;-61
2023/09/06 07:31:39;;;;;;;1.30;1.00;;;18.60;1.00;;;;;;5128085;27;20719;-61
2023/09/06 07:34:07;;;;;;;1.90;1.10;;;18.70;99.90;;;;;;5127175;27;21086;-60
2023/09/06 07:36:34;;;;;;;1.80;0.90;;;18.80;99.90;;;;;;5109914;28;20420;-60
2023/09/06 07:39:03;;;;;;;1.60;1.00;;;18.90;99.90;;;;;;5122024;27;20418;-60
2023/09/06 07:41:31;;;;;;;1.73;0.90;;;19.00;99.90;;;;;;5135391;27;20426;-60
2023/09/06 07:43:58;;;;;;;1.40;0.90;;;19.20;99.90;;;;;;5134820;27;20416;-60
2023/09/06 07:46:28;;;;;;;1.80;1.08;;;19.40;99.90;;;;;;5134793;27;20426;-60
2023/09/06 07:48:55;;;;;;;2.00;1.00;;;19.60;21.30;;;;;;5134111;27;20898;-59
2023/09/06 07:51:23;;;;;;;1.73;1.00;;;19.70;1.00;;;;;;5128336;27;20418;-60
2023/09/06 07:53:50;;;;;;;1.70;0.90;;;19.70;1.00;;;;;;5135583;27;20421;-60
2023/09/06 07:56:19;;;;;;;1.45;0.90;;;19.80;1.00;;;;;;5135571;27;20851;-59
2023/09/06 07:58:46;;;;;;;1.52;0.80;;;19.80;1.00;;;;;;5136326;27;20419;-59
2023/09/06 08:01:14;;;;;;;1.20;0.80;;;19.80;1.00;;;;;;5134244;27;20491;-59
2023/09/06 08:03:42;;;;;;;1.92;0.90;;;19.90;1.00;;;;;;5135123;27;20432;-60
2023/09/06 08:06:09;;;;;;;1.77;1.00;;;20.00;1.00;;;;;;5134358;27;20433;-59
2023/09/06 08:08:36;;;;;;;1.30;1.00;;;20.00;1.00;;;;;;5125845;27;20525;-59
2023/09/06 08:11:04;;;;;;;2.75;1.00;;;20.00;1.00;;;;;;5133695;27;20917;-59
2023/09/06 08:13:32;;;;;;;1.80;1.00;;;20.10;1.00;;;;;;5134120;27;21077;-60
2023/09/06 08:16:00;;;;;;;1.88;1.00;;;20.20;1.00;;;;;;5134404;27;20429;-60
2023/09/06 08:18:28;;;;;;;1.67;1.00;;;20.30;1.00;;;;;;5135054;27;20414;-60
2023/09/06 08:20:55;;;;;;;2.53;0.90;;;20.30;1.00;;;;;;5134561;27;20532;-60
2023/09/06 08:23:22;;;;;;;1.50;0.90;;;20.40;1.00;;;;;;5133657;27;20423;-60
2023/09/06 08:25:49;;;;;;;1.50;1.00;;;20.60;1.00;;;;;;5132429;27;20466;-60
2023/09/06 08:28:18;;;;;;;1.40;1.00;;;20.80;1.00;;;;;;5134392;27;20425;-60
2023/09/06 08:30:47;;;;;;;1.30;1.00;;;21.00;1.00;;;;;;5134341;27;20502;-60
2023/09/06 08:33:14;;;;;;;1.17;0.88;;;21.00;1.00;;;;;;5133959;27;20414;-60
2023/09/06 08:35:41;;;;;;;2.65;1.00;;;20.90;1.00;;;;;;5133312;27;20414;-60
2023/09/06 08:38:09;;;;;;;1.90;0.80;;;20.90;1.00;;;;;;5133995;27;20427;-60
2023/09/06 08:40:37;;;;;;;2.33;0.80;;;21.10;1.00;;;;;;5115043;27;20443;-60
2023/09/06 08:43:05;;;;;;;2.17;1.05;;;21.20;99.90;;;;;;5112859;28;20503;-60
2023/09/06 08:45:32;;;;;;;1.70;1.00;;;21.30;99.90;;;;;;5112742;28;20400;-60
2023/09/06 08:48:02;;;;;;;1.80;0.95;;;21.40;99.90;;;;;;5113705;28;20407;-60
2023/09/06 08:50:33;;;;;;;1.70;1.00;;;21.40;99.90;;;;;;5114231;28;20514;-60
2023/09/06 08:53:01;;;;;;;2.80;1.00;;;21.50;99.90;;;;;;5112711;28;20420;-60
2023/09/06 08:55:28;;;;;;;1.40;1.00;;;21.50;99.90;;;;;;5113250;28;20431;-59
2023/09/06 08:57:57;;;;;;;1.10;0.90;;;21.50;99.90;;;;;;5113492;28;20408;-59
2023/09/06 09:00:24;;;;;;;1.60;1.10;;;21.60;99.90;;;;;;5111393;28;20409;-59
2023/09/06 09:02:52;;;;;;;1.42;1.00;;;21.70;99.90;;;;;;5111385;28;20432;-59
2023/09/06 09:05:22;;;;;;;1.40;1.00;;;21.90;99.90;;;;;;5112217;28;20712;-59
2023/09/06 09:07:50;;;;;;;2.03;0.90;;;22.00;99.90;;;;;;5112612;28;20859;-59
2023/09/06 09:10:18;;;;;;;1.50;1.00;;;22.10;99.90;;;;;;5113463;28;20507;-60
2023/09/06 09:12:45;;;;;;;1.92;1.00;;;22.10;99.90;;;;;;5112490;28;20715;-59
2023/09/06 09:15:12;;;;;;;1.40;0.90;;;22.10;99.90;;;;;;5115169;27;20434;-59
2023/09/06 09:17:40;;;;;;;1.80;1.10;;;22.10;99.90;;;;;;5110596;27;20429;-60
2023/09/06 09:20:09;;;;;;;1.70;1.00;;;22.20;99.90;;;;;;5118790;27;20439;-61
2023/09/06 09:22:38;;;;;;;3.60;1.30;;;22.10;99.90;;;;;;5125736;27;20464;-59
2023/09/06 09:25:14;;;;;;;1.45;0.90;;;22.20;99.90;;;;;;5119425;27;20427;-59
2023/09/06 09:27:42;;;;;;;1.40;1.05;;;22.40;99.90;;;;;;5121276;27;20441;-62
2023/09/06 09:30:14;;;;;;;1.23;0.98;;;22.40;99.90;;;;;;5121363;27;20443;-60
2023/09/06 09:32:42;;;;;;;3.05;1.00;;;22.60;99.90;;;;;;5119422;27;20468;-60
2023/09/06 09:35:10;;;;;;;1.30;1.00;;;22.70;99.90;;;;;;5116539;27;21030;-61
2023/09/06 09:37:40;;;;;;;1.33;0.90;;;23.00;99.90;;;;;;5105350;28;20428;-61
2023/09/06 09:40:17;;;;;;;1.40;0.90;;;23.20;99.90;;;;;;5130375;27;20410;-60
2023/09/06 09:42:53;;;;;;;1.10;0.90;;;23.40;99.90;;;;;;5129134;27;20431;-61
2023/09/06 09:45:21;;;;;;;1.50;1.00;;;23.60;99.90;;;;;;5110467;28;20438;-62
2023/09/06 09:47:49;;;;;;;1.55;0.90;;;23.70;99.80;;;;;;5123410;27;20740;-62
2023/09/06 09:50:17;;;;;;;1.33;0.90;;;23.60;92.00;;;;;;5140872;27;20475;-64
2023/09/06 09:52:47;;;;;;;1.30;0.90;;;23.70;87.30;;;;;;5127058;27;20434;-59
2023/09/06 09:55:16;;;;;;;1.57;0.90;;;23.80;59.00;;;;;;5123544;27;20459;-61
2023/09/06 09:57:44;;;;;;;1.23;0.90;;;23.90;43.50;;;;;;5125931;27;20722;-60
2023/09/06 10:00:13;;;;;;;2.25;0.90;;;23.90;30.30;;;;;;5118270;27;20935;-60
2023/09/06 10:02:42;;;;;;;1.40;1.10;;;24.10;7.40;;;;;;5128546;27;20941;-60
2023/09/06 10:05:13;;;;;;;1.40;1.00;;;24.30;1.00;;;;;;5132259;27;20804;-59
2023/09/06 10:07:42;;;;;;;1.40;1.00;;;24.60;1.00;;;;;;5124854;27;20441;-60
2023/09/06 10:10:13;;;;;;;1.70;1.00;;;24.70;1.00;;;;;;5111476;28;20843;-61
2023/09/06 10:12:44;;;;;;;2.10;1.48;;;24.90;1.00;;;;;;5119779;28;20522;-60
2023/09/06 10:15:14;;;;;;;2.10;0.90;;;25.20;1.00;;;;;;5125066;28;20874;-61
2023/09/06 10:17:42;;;;;;;1.77;1.30;;;25.30;1.00;;;;;;5109360;28;20513;-61
2023/09/06 10:20:14;;;;;;;1.60;1.10;;;25.50;1.00;;;;;;5125649;28;20441;-61
2023/09/06 10:22:43;;;;;;;1.77;1.10;;;25.50;1.00;;;;;;5119197;28;20428;-61
2023/09/06 10:25:15;;;;;;;1.60;1.10;;;25.50;1.00;;;;;;5130053;28;20419;-60
2023/09/06 10:27:49;;;;;;;1.50;1.10;;;25.70;1.00;;;;;;5127653;28;20446;-61
2023/09/06 10:30:17;;;;;;;1.80;1.10;;;25.90;1.00;;;;;;5122967;28;20469;-62
2023/09/06 10:32:45;;;;;;;1.45;1.08;;;26.30;1.00;;;;;;5120294;28;20435;-60
2023/09/06 10:35:29;;;;;;;1.70;1.02;;;26.30;1.00;;;;;;5127103;28;20438;-60
2023/09/06 10:38:04;;;;;;;2.30;1.08;;;26.00;1.00;;;;;;5120176;28;20434;-61
2023/09/06 10:41:10;;;;;;;1.50;1.05;;;25.90;1.00;;;;;;5119551;28;20473;-62
2023/09/06 10:43:54;;;;;;;1.40;1.00;;;26.10;1.00;;;;;;5118256;28;20418;-61
2023/09/06 10:46:26;;;;;;;1.75;1.10;;;26.40;1.00;;;;;;5116604;28;20538;-63
2023/09/06 10:49:15;;;;;;;1.30;1.00;;;26.50;1.00;;;;;;5130174;28;20441;-62
2023/09/06 10:52:00;;;;;;;1.40;1.00;;;26.80;1.00;;;;;;5123337;28;20421;-62
2023/09/06 10:54:34;;;;;;;1.40;1.00;;;27.00;1.00;;;;;;5116053;28;20482;-62
2023/09/06 10:57:07;;;;;;;1.83;1.00;;;27.00;1.00;;;;;;5123462;28;21014;-61
2023/09/06 10:59:38;;;;;;;1.30;1.00;;;27.10;1.00;;;;;;5132993;27;20426;-64
2023/09/06 11:02:16;;;;;;;2.10;1.00;;;27.20;1.00;;;;;;5133699;27;20432;-61
2023/09/06 11:04:43;;;;;;;1.20;1.00;;;27.50;1.00;;;;;;5133870;27;20437;-62
2023/09/06 11:07:11;;;;;;;1.60;0.90;;;27.60;1.00;;;;;;5155193;27;20931;-61
2023/09/06 11:09:43;;;;;;;1.17;0.90;;;27.60;1.00;;;;;;5116475;27;20493;-61
2023/09/06 11:12:14;;;;;;;2.80;0.90;;;27.80;1.00;;;;;;5122100;27;20417;-62
2023/09/06 11:14:43;;;;;;;1.80;1.07;;;28.10;1.00;;;;;;5129037;27;20509;-62
2023/09/06 11:17:20;;;;;;;1.60;0.90;;;28.30;1.00;;;;;;5133902;27;20537;-62
2023/09/06 11:19:48;;;;;;;1.20;0.90;;;28.20;1.00;;;;;;5115421;27;20428;-62
2023/09/06 11:22:16;;;;;;;1.33;1.00;;;27.70;1.00;;;;;;5124245;27;20430;-62
2023/09/06 11:24:44;;;;;;;1.67;1.00;;;27.80;1.00;;;;;;5128151;27;20431;-61
2023/09/06 11:27:21;;;;;;;1.30;1.00;;;28.10;1.00;;;;;;5123731;27;20414;-63
2023/09/06 11:29:57;;;;;;;1.90;1.10;;;28.20;1.00;;;;;;5115281;27;21159;-63
2023/09/06 11:32:26;;;;;;;1.20;1.00;;;28.50;1.00;;;;;;5115838;28;20454;-62
2023/09/06 11:34:53;;;;;;;1.50;0.90;;;28.60;1.00;;;;;;5122273;27;20432;-61
2023/09/06 11:37:21;;;;;;;2.10;0.90;;;28.60;1.00;;;;;;5135001;27;20441;-59
2023/09/06 11:39:49;;;;;;;1.40;0.90;;;28.50;1.00;;;;;;5123132;27;20481;-61
2023/09/06 11:42:19;;;;;;;1.30;1.00;;;28.10;1.00;;;;;;5121129;27;20741;-63
2023/09/06 11:44:50;;;;;;;2.13;1.10;;;27.90;1.00;;;;;;5125983;27;20439;-65
2023/09/06 11:47:18;;;;;;;1.40;1.00;;;27.50;1.00;;;;;;5127855;27;20431;-61
2023/09/06 11:49:46;;;;;;;1.70;1.00;;;28.00;1.00;;;;;;5125178;27;20904;-59
2023/09/06 11:52:18;;;;;;;1.70;1.00;;;28.50;1.00;;;;;;5131619;27;20425;-62
2023/09/06 11:54:49;;;;;;;1.20;0.90;;;28.40;1.00;;;;;;5130334;27;20936;-60
2023/09/06 11:57:22;;;;;;;1.50;1.00;;;28.50;1.00;;;;;;5134840;27;20543;-62
2023/09/06 11:59:53;;;;;;;1.30;0.90;;;28.40;1.00;;;;;;5125858;27;20510;-61
2023/09/06 12:02:26;;;;;;;1.20;0.90;;;28.70;1.00;;;;;;5134710;27;20426;-62
2023/09/06 12:05:00;;;;;;;1.50;0.90;;;28.60;1.00;;;;;;5131279;27;20458;-60
2023/09/06 12:07:27;;;;;;;2.50;1.00;;;28.70;1.00;;;;;;5136032;27;20499;-61
2023/09/06 12:09:57;;;;;;;1.20;1.00;;;29.00;1.00;;;;;;5117179;27;20916;-60
2023/09/06 12:12:25;;;;;;;2.00;1.00;;;29.30;1.00;;;;;;5121680;27;20753;-60
2023/09/06 12:14:54;;;;;;;1.60;1.00;;;29.40;1.00;;;;;;5127379;27;20430;-60
2023/09/06 12:17:21;;;;;;;1.20;0.90;;;29.40;1.00;;;;;;5118639;27;20451;-61
2023/09/06 12:19:57;;;;;;;1.15;0.95;;;29.60;1.00;;;;;;5117187;27;20867;-60
2023/09/06 12:22:24;;;;;;;1.20;0.90;;;29.50;1.00;;;;;;5111732;27;20517;-61
2023/09/06 12:24:52;;;;;;;1.20;0.80;;;29.40;1.00;;;;;;5133104;27;20440;-61
2023/09/06 12:27:20;;;;;;;1.20;0.90;;;29.70;1.00;;;;;;5131909;27;20417;-60
2023/09/06 12:29:48;;;;;;;1.10;0.90;;;29.80;1.00;;;;;;5127408;27;20519;-60
2023/09/06 12:32:17;;;;;;;1.60;0.80;;;29.80;1.00;;;;;;5127736;27;20423;-61
2023/09/06 12:34:44;;;;;;;1.40;0.90;;;30.00;1.00;;;;;;5132476;27;20430;-60
2023/09/06 12:37:11;;;;;;;1.10;0.80;;;30.00;1.00;;;;;;5111782;27;20418;-61
2023/09/06 12:39:38;;;;;;;1.10;0.90;;;29.80;1.00;;;;;;5114107;27;20515;-61
2023/09/06 12:42:07;;;;;;;1.50;0.90;;;29.50;1.00;;;;;;5118396;27;20427;-59
2023/09/06 12:44:34;;;;;;;1.80;0.90;;;29.80;1.00;;;;;;5130047;27;20475;-60
2023/09/06 12:47:01;;;;;;;1.50;0.80;;;29.80;1.00;;;;;;5126816;27;20426;-59
2023/09/06 12:49:30;;;;;;;2.65;0.80;;;29.50;1.00;;;;;;5115642;27;20422;-59
2023/09/06 12:51:57;;;;;;;1.00;0.70;;;29.80;1.00;;;;;;5115844;27;20424;-60
2023/09/06 12:54:24;;;;;;;1.30;0.90;;;29.80;1.00;;;;;;5115097;27;20410;-60
2023/09/06 12:56:51;;;;;;;2.45;1.10;;;30.10;1.00;;;;;;5118857;27;20737;-59
2023/09/06 12:59:18;;;;;;;0.93;0.70;;;30.20;1.00;;;;;;5120755;27;20440;-59
2023/09/06 13:01:45;;;;;;;1.10;0.90;;;30.10;1.00;;;;;;5131434;27;20957;-60